sensor_id;sensor_type;location;lat;lon;timestamp;P1;durP1;ratioP1;P2;durP2;ratioP2
76136;SDS011;65394;53.172;18.164;2023-02-18T00:02:06;11.20;;;1.20;;
76136;SDS011;65394;53.172;18.164;2023-02-18T00:04:33;7.40;;;1.40;;
76136;SDS011;65394;53.172;18.164;2023-02-18T00:06:59;10.00;;;1.00;;
76136;SDS011;65394;53.172;18.164;2023-02-18T00:09:25;9.10;;;1.20;;
76136;SDS011;65394;53.172;18.164;2023-02-18T00:11:51;7.20;;;0.80;;
76136;SDS011;65394;53.172;18.164;2023-02-18T00:14:18;9.90;;;1.20;;
76136;SDS011;65394;53.172;18.164;2023-02-18T00:16:44;6.80;;;1.10;;
76136;SDS011;65394;53.172;18.164;2023-02-18T00:19:17;9.60;;;0.70;;
76136;SDS011;65394;53.172;18.164;2023-02-18T00:21:44;7.50;;;1.00;;
76136;SDS011;65394;53.172;18.164;2023-02-18T00:24:12;10.00;;;1.10;;
76136;SDS011;65394;53.172;18.164;2023-02-18T00:26:42;10.40;;;1.10;;
76136;SDS011;65394;53.172;18.164;2023-02-18T00:29:09;7.50;;;1.00;;
76136;SDS011;65394;53.172;18.164;2023-02-18T00:31:35;7.80;;;0.60;;
76136;SDS011;65394;53.172;18.164;2023-02-18T00:34:02;8.10;;;0.90;;
76136;SDS011;65394;53.172;18.164;2023-02-18T00:36:29;10.70;;;0.80;;
76136;SDS011;65394;53.172;18.164;2023-02-18T00:38:56;7.10;;;0.90;;
76136;SDS011;65394;53.172;18.164;2023-02-18T00:41:25;5.40;;;0.80;;
76136;SDS011;65394;53.172;18.164;2023-02-18T00:43:53;9.00;;;0.90;;
76136;SDS011;65394;53.172;18.164;2023-02-18T00:46:19;10.00;;;1.30;;
76136;SDS011;65394;53.172;18.164;2023-02-18T00:48:46;6.70;;;0.80;;
76136;SDS011;65394;53.172;18.164;2023-02-18T00:51:12;10.00;;;0.80;;
76136;SDS011;65394;53.172;18.164;2023-02-18T00:53:38;8.00;;;0.80;;
76136;SDS011;65394;53.172;18.164;2023-02-18T00:56:05;8.70;;;0.70;;
76136;SDS011;65394;53.172;18.164;2023-02-18T00:58:32;9.90;;;1.10;;
76136;SDS011;65394;53.172;18.164;2023-02-18T01:00:59;10.50;;;1.00;;
76136;SDS011;65394;53.172;18.164;2023-02-18T01:03:25;6.70;;;0.80;;
76136;SDS011;65394;53.172;18.164;2023-02-18T01:05:52;6.60;;;0.90;;
76136;SDS011;65394;53.172;18.164;2023-02-18T01:08:19;11.00;;;1.30;;
76136;SDS011;65394;53.172;18.164;2023-02-18T01:10:47;8.10;;;1.10;;
76136;SDS011;65394;53.172;18.164;2023-02-18T01:13:15;7.00;;;0.90;;
76136;SDS011;65394;53.172;18.164;2023-02-18T01:15:41;6.80;;;1.30;;
76136;SDS011;65394;53.172;18.164;2023-02-18T01:18:09;8.00;;;0.80;;
76136;SDS011;65394;53.172;18.164;2023-02-18T01:20:36;5.80;;;0.60;;
76136;SDS011;65394;53.172;18.164;2023-02-18T01:23:04;11.60;;;1.20;;
76136;SDS011;65394;53.172;18.164;2023-02-18T01:25:30;12.10;;;1.00;;
76136;SDS011;65394;53.172;18.164;2023-02-18T01:27:56;9.60;;;0.90;;
76136;SDS011;65394;53.172;18.164;2023-02-18T01:30:23;7.10;;;0.90;;
76136;SDS011;65394;53.172;18.164;2023-02-18T01:32:49;7.30;;;0.70;;
76136;SDS011;65394;53.172;18.164;2023-02-18T01:35:18;6.30;;;0.60;;
76136;SDS011;65394;53.172;18.164;2023-02-18T01:37:45;6.10;;;1.10;;
76136;SDS011;65394;53.172;18.164;2023-02-18T01:40:12;6.30;;;0.90;;
76136;SDS011;65394;53.172;18.164;2023-02-18T01:42:40;8.30;;;0.70;;
76136;SDS011;65394;53.172;18.164;2023-02-18T01:48:02;7.90;;;1.00;;
76136;SDS011;65394;53.172;18.164;2023-02-18T01:50:32;8.20;;;1.20;;
76136;SDS011;65394;53.172;18.164;2023-02-18T01:53:01;9.20;;;1.00;;
76136;SDS011;65394;53.172;18.164;2023-02-18T01:55:30;7.40;;;0.90;;
76136;SDS011;65394;53.172;18.164;2023-02-18T01:57:56;7.50;;;0.90;;
76136;SDS011;65394;53.172;18.164;2023-02-18T02:00:22;5.80;;;0.60;;
76136;SDS011;65394;53.172;18.164;2023-02-18T02:02:49;7.00;;;0.70;;
76136;SDS011;65394;53.172;18.164;2023-02-18T02:05:17;5.00;;;0.60;;
76136;SDS011;65394;53.172;18.164;2023-02-18T02:07:46;8.90;;;1.30;;
76136;SDS011;65394;53.172;18.164;2023-02-18T02:10:16;6.60;;;1.20;;
76136;SDS011;65394;53.172;18.164;2023-02-18T02:34:41;10.10;;;0.80;;
76136;SDS011;65394;53.172;18.164;2023-02-18T02:40:03;6.40;;;0.70;;
76136;SDS011;65394;53.172;18.164;2023-02-18T02:42:53;9.10;;;0.80;;
76136;SDS011;65394;53.172;18.164;2023-02-18T02:45:43;9.20;;;1.00;;
76136;SDS011;65394;53.172;18.164;2023-02-18T02:51:32;9.10;;;1.00;;
76136;SDS011;65394;53.172;18.164;2023-02-18T02:54:21;8.50;;;1.20;;
76136;SDS011;65394;53.172;18.164;2023-02-18T02:56:48;8.20;;;1.10;;
76136;SDS011;65394;53.172;18.164;2023-02-18T02:59:21;10.90;;;1.10;;
76136;SDS011;65394;53.172;18.164;2023-02-18T03:02:01;5.60;;;0.70;;
76136;SDS011;65394;53.172;18.164;2023-02-18T03:04:59;8.80;;;1.30;;
76136;SDS011;65394;53.172;18.164;2023-02-18T03:07:49;7.50;;;1.00;;
76136;SDS011;65394;53.172;18.164;2023-02-18T03:19:06;4.50;;;0.50;;
76136;SDS011;65394;53.172;18.164;2023-02-18T03:26:47;6.50;;;0.60;;
76136;SDS011;65394;53.172;18.164;2023-02-18T03:29:18;8.30;;;0.50;;
76136;SDS011;65394;53.172;18.164;2023-02-18T03:31:48;8.80;;;0.60;;
76136;SDS011;65394;53.172;18.164;2023-02-18T03:34:20;10.60;;;1.10;;
76136;SDS011;65394;53.172;18.164;2023-02-18T03:36:51;5.60;;;0.70;;
76136;SDS011;65394;53.172;18.164;2023-02-18T03:39:19;8.90;;;1.00;;
76136;SDS011;65394;53.172;18.164;2023-02-18T03:41:49;7.60;;;1.40;;
76136;SDS011;65394;53.172;18.164;2023-02-18T03:44:15;9.90;;;0.90;;
76136;SDS011;65394;53.172;18.164;2023-02-18T03:46:41;8.40;;;1.10;;
76136;SDS011;65394;53.172;18.164;2023-02-18T03:49:10;6.00;;;1.00;;
76136;SDS011;65394;53.172;18.164;2023-02-18T03:51:39;6.50;;;0.60;;
76136;SDS011;65394;53.172;18.164;2023-02-18T03:54:07;5.30;;;0.70;;
76136;SDS011;65394;53.172;18.164;2023-02-18T03:56:34;8.90;;;0.90;;
76136;SDS011;65394;53.172;18.164;2023-02-18T03:59:00;6.50;;;0.70;;
76136;SDS011;65394;53.172;18.164;2023-02-18T04:01:26;7.60;;;0.70;;
76136;SDS011;65394;53.172;18.164;2023-02-18T04:03:52;10.70;;;0.80;;
76136;SDS011;65394;53.172;18.164;2023-02-18T04:06:20;8.10;;;0.80;;
76136;SDS011;65394;53.172;18.164;2023-02-18T04:08:47;8.20;;;0.70;;
76136;SDS011;65394;53.172;18.164;2023-02-18T04:11:13;8.80;;;1.10;;
76136;SDS011;65394;53.172;18.164;2023-02-18T04:13:39;7.10;;;0.70;;
76136;SDS011;65394;53.172;18.164;2023-02-18T04:16:05;6.90;;;0.70;;
76136;SDS011;65394;53.172;18.164;2023-02-18T04:18:31;5.90;;;0.60;;
76136;SDS011;65394;53.172;18.164;2023-02-18T04:20:57;7.40;;;0.90;;
76136;SDS011;65394;53.172;18.164;2023-02-18T04:23:23;6.70;;;0.70;;
76136;SDS011;65394;53.172;18.164;2023-02-18T04:25:49;7.00;;;0.70;;
76136;SDS011;65394;53.172;18.164;2023-02-18T04:28:15;10.00;;;0.70;;
76136;SDS011;65394;53.172;18.164;2023-02-18T04:30:42;8.60;;;1.10;;
76136;SDS011;65394;53.172;18.164;2023-02-18T04:33:09;8.80;;;1.10;;
76136;SDS011;65394;53.172;18.164;2023-02-18T04:35:35;8.30;;;0.90;;
76136;SDS011;65394;53.172;18.164;2023-02-18T04:38:02;8.80;;;0.80;;
76136;SDS011;65394;53.172;18.164;2023-02-18T04:40:28;5.90;;;1.00;;
76136;SDS011;65394;53.172;18.164;2023-02-18T04:42:56;5.40;;;0.70;;
76136;SDS011;65394;53.172;18.164;2023-02-18T04:45:23;8.20;;;1.20;;
76136;SDS011;65394;53.172;18.164;2023-02-18T04:47:49;11.00;;;1.50;;
76136;SDS011;65394;53.172;18.164;2023-02-18T04:50:15;12.80;;;1.90;;
76136;SDS011;65394;53.172;18.164;2023-02-18T04:52:41;5.30;;;0.90;;
76136;SDS011;65394;53.172;18.164;2023-02-18T04:55:07;6.20;;;0.90;;
76136;SDS011;65394;53.172;18.164;2023-02-18T04:57:33;3.10;;;0.40;;
76136;SDS011;65394;53.172;18.164;2023-02-18T04:59:59;4.60;;;0.40;;
76136;SDS011;65394;53.172;18.164;2023-02-18T05:02:25;11.30;;;1.50;;
76136;SDS011;65394;53.172;18.164;2023-02-18T05:04:51;10.80;;;1.30;;
76136;SDS011;65394;53.172;18.164;2023-02-18T05:07:17;7.00;;;0.70;;
76136;SDS011;65394;53.172;18.164;2023-02-18T05:09:43;11.40;;;1.00;;
76136;SDS011;65394;53.172;18.164;2023-02-18T05:12:09;10.00;;;1.10;;
76136;SDS011;65394;53.172;18.164;2023-02-18T05:14:35;16.10;;;1.30;;
76136;SDS011;65394;53.172;18.164;2023-02-18T05:17:01;6.90;;;0.70;;
76136;SDS011;65394;53.172;18.164;2023-02-18T05:19:26;9.40;;;0.90;;
76136;SDS011;65394;53.172;18.164;2023-02-18T05:21:52;10.90;;;1.90;;
76136;SDS011;65394;53.172;18.164;2023-02-18T05:24:18;8.10;;;1.30;;
76136;SDS011;65394;53.172;18.164;2023-02-18T05:26:44;5.90;;;0.80;;
76136;SDS011;65394;53.172;18.164;2023-02-18T05:29:10;8.40;;;1.10;;
76136;SDS011;65394;53.172;18.164;2023-02-18T05:31:36;12.70;;;1.60;;
76136;SDS011;65394;53.172;18.164;2023-02-18T05:34:03;10.30;;;2.30;;
76136;SDS011;65394;53.172;18.164;2023-02-18T05:36:29;9.80;;;2.20;;
76136;SDS011;65394;53.172;18.164;2023-02-18T05:38:55;13.80;;;2.50;;
76136;SDS011;65394;53.172;18.164;2023-02-18T05:41:20;15.00;;;3.30;;
76136;SDS011;65394;53.172;18.164;2023-02-18T05:43:46;9.60;;;1.90;;
76136;SDS011;65394;53.172;18.164;2023-02-18T05:46:31;14.60;;;1.70;;
76136;SDS011;65394;53.172;18.164;2023-02-18T05:48:57;13.30;;;2.10;;
76136;SDS011;65394;53.172;18.164;2023-02-18T05:51:23;17.40;;;3.70;;
76136;SDS011;65394;53.172;18.164;2023-02-18T05:53:49;15.90;;;2.90;;
76136;SDS011;65394;53.172;18.164;2023-02-18T05:56:15;10.50;;;1.70;;
76136;SDS011;65394;53.172;18.164;2023-02-18T05:58:41;12.60;;;1.60;;
76136;SDS011;65394;53.172;18.164;2023-02-18T06:01:06;11.10;;;0.90;;
76136;SDS011;65394;53.172;18.164;2023-02-18T06:03:32;9.60;;;1.20;;
76136;SDS011;65394;53.172;18.164;2023-02-18T06:05:58;10.80;;;0.90;;
76136;SDS011;65394;53.172;18.164;2023-02-18T06:08:24;8.30;;;1.00;;
76136;SDS011;65394;53.172;18.164;2023-02-18T06:10:50;7.30;;;0.70;;
76136;SDS011;65394;53.172;18.164;2023-02-18T06:13:16;10.20;;;1.20;;
76136;SDS011;65394;53.172;18.164;2023-02-18T06:15:42;8.30;;;1.00;;
76136;SDS011;65394;53.172;18.164;2023-02-18T06:18:08;9.30;;;0.90;;
76136;SDS011;65394;53.172;18.164;2023-02-18T06:20:34;7.10;;;1.10;;
76136;SDS011;65394;53.172;18.164;2023-02-18T06:23:00;11.70;;;1.80;;
76136;SDS011;65394;53.172;18.164;2023-02-18T06:25:25;10.20;;;1.70;;
76136;SDS011;65394;53.172;18.164;2023-02-18T06:27:51;12.40;;;1.70;;
76136;SDS011;65394;53.172;18.164;2023-02-18T06:30:17;13.50;;;2.20;;
76136;SDS011;65394;53.172;18.164;2023-02-18T06:32:43;8.80;;;1.40;;
76136;SDS011;65394;53.172;18.164;2023-02-18T06:35:09;10.20;;;1.70;;
76136;SDS011;65394;53.172;18.164;2023-02-18T06:37:35;10.30;;;1.40;;
76136;SDS011;65394;53.172;18.164;2023-02-18T06:40:01;11.70;;;1.50;;
76136;SDS011;65394;53.172;18.164;2023-02-18T06:42:26;12.30;;;1.50;;
76136;SDS011;65394;53.172;18.164;2023-02-18T06:44:52;12.60;;;1.50;;
76136;SDS011;65394;53.172;18.164;2023-02-18T06:47:18;14.10;;;1.50;;
76136;SDS011;65394;53.172;18.164;2023-02-18T06:49:44;10.10;;;1.30;;
76136;SDS011;65394;53.172;18.164;2023-02-18T06:52:10;5.90;;;1.30;;
76136;SDS011;65394;53.172;18.164;2023-02-18T06:54:36;9.80;;;1.50;;
76136;SDS011;65394;53.172;18.164;2023-02-18T06:57:02;10.60;;;1.50;;
76136;SDS011;65394;53.172;18.164;2023-02-18T06:59:28;13.00;;;1.60;;
76136;SDS011;65394;53.172;18.164;2023-02-18T07:01:54;13.90;;;1.90;;
76136;SDS011;65394;53.172;18.164;2023-02-18T07:04:19;11.50;;;1.80;;
76136;SDS011;65394;53.172;18.164;2023-02-18T07:06:45;13.60;;;2.40;;
76136;SDS011;65394;53.172;18.164;2023-02-18T07:09:11;9.20;;;1.70;;
76136;SDS011;65394;53.172;18.164;2023-02-18T07:11:37;8.90;;;1.30;;
76136;SDS011;65394;53.172;18.164;2023-02-18T07:14:03;12.80;;;2.20;;
76136;SDS011;65394;53.172;18.164;2023-02-18T07:16:29;14.50;;;3.10;;
76136;SDS011;65394;53.172;18.164;2023-02-18T07:18:55;10.20;;;2.50;;
76136;SDS011;65394;53.172;18.164;2023-02-18T07:21:21;8.80;;;1.30;;
76136;SDS011;65394;53.172;18.164;2023-02-18T07:23:47;12.90;;;1.60;;
76136;SDS011;65394;53.172;18.164;2023-02-18T07:26:13;15.00;;;2.00;;
76136;SDS011;65394;53.172;18.164;2023-02-18T07:28:40;18.30;;;1.90;;
76136;SDS011;65394;53.172;18.164;2023-02-18T07:31:07;12.90;;;1.80;;
76136;SDS011;65394;53.172;18.164;2023-02-18T07:33:33;12.30;;;2.30;;
76136;SDS011;65394;53.172;18.164;2023-02-18T07:35:59;9.50;;;1.50;;
76136;SDS011;65394;53.172;18.164;2023-02-18T07:38:26;13.10;;;2.30;;
76136;SDS011;65394;53.172;18.164;2023-02-18T07:40:53;11.50;;;1.80;;
76136;SDS011;65394;53.172;18.164;2023-02-18T07:43:20;11.60;;;2.10;;
76136;SDS011;65394;53.172;18.164;2023-02-18T07:45:46;10.80;;;1.80;;
76136;SDS011;65394;53.172;18.164;2023-02-18T07:48:13;15.50;;;3.30;;
76136;SDS011;65394;53.172;18.164;2023-02-18T07:50:39;11.90;;;2.50;;
76136;SDS011;65394;53.172;18.164;2023-02-18T07:53:06;12.90;;;2.60;;
76136;SDS011;65394;53.172;18.164;2023-02-18T07:55:33;8.60;;;1.90;;
76136;SDS011;65394;53.172;18.164;2023-02-18T07:58:24;7.60;;;1.30;;
76136;SDS011;65394;53.172;18.164;2023-02-18T08:00:52;5.10;;;1.40;;
76136;SDS011;65394;53.172;18.164;2023-02-18T08:03:20;12.20;;;1.60;;
76136;SDS011;65394;53.172;18.164;2023-02-18T08:05:48;9.70;;;1.30;;
76136;SDS011;65394;53.172;18.164;2023-02-18T08:08:17;9.80;;;1.40;;
76136;SDS011;65394;53.172;18.164;2023-02-18T08:10:46;14.50;;;1.90;;
76136;SDS011;65394;53.172;18.164;2023-02-18T08:13:13;10.70;;;1.30;;
76136;SDS011;65394;53.172;18.164;2023-02-18T08:15:39;10.20;;;1.30;;
76136;SDS011;65394;53.172;18.164;2023-02-18T08:18:06;9.70;;;1.70;;
76136;SDS011;65394;53.172;18.164;2023-02-18T08:20:36;13.10;;;2.30;;
76136;SDS011;65394;53.172;18.164;2023-02-18T08:23:03;12.20;;;2.00;;
76136;SDS011;65394;53.172;18.164;2023-02-18T08:25:31;11.30;;;1.70;;
76136;SDS011;65394;53.172;18.164;2023-02-18T08:27:57;12.10;;;1.50;;
76136;SDS011;65394;53.172;18.164;2023-02-18T08:30:24;9.00;;;1.50;;
76136;SDS011;65394;53.172;18.164;2023-02-18T08:32:51;9.20;;;0.90;;
76136;SDS011;65394;53.172;18.164;2023-02-18T08:35:17;10.80;;;1.60;;
76136;SDS011;65394;53.172;18.164;2023-02-18T08:37:43;15.00;;;2.00;;
76136;SDS011;65394;53.172;18.164;2023-02-18T08:40:09;10.00;;;2.00;;
76136;SDS011;65394;53.172;18.164;2023-02-18T08:42:37;9.00;;;1.30;;
76136;SDS011;65394;53.172;18.164;2023-02-18T08:45:03;13.50;;;2.20;;
76136;SDS011;65394;53.172;18.164;2023-02-18T08:47:31;11.90;;;1.40;;
76136;SDS011;65394;53.172;18.164;2023-02-18T08:49:58;8.70;;;1.30;;
76136;SDS011;65394;53.172;18.164;2023-02-18T08:52:24;11.60;;;1.90;;
76136;SDS011;65394;53.172;18.164;2023-02-18T08:54:50;8.90;;;1.80;;
76136;SDS011;65394;53.172;18.164;2023-02-18T08:57:17;11.80;;;2.00;;
76136;SDS011;65394;53.172;18.164;2023-02-18T08:59:43;11.20;;;1.80;;
76136;SDS011;65394;53.172;18.164;2023-02-18T09:02:12;10.00;;;1.90;;
76136;SDS011;65394;53.172;18.164;2023-02-18T09:04:39;9.90;;;1.50;;
76136;SDS011;65394;53.172;18.164;2023-02-18T09:07:05;12.50;;;1.70;;
76136;SDS011;65394;53.172;18.164;2023-02-18T09:09:31;9.80;;;1.50;;
76136;SDS011;65394;53.172;18.164;2023-02-18T09:11:57;12.00;;;2.20;;
76136;SDS011;65394;53.172;18.164;2023-02-18T09:14:23;10.60;;;2.10;;
76136;SDS011;65394;53.172;18.164;2023-02-18T09:16:49;10.30;;;1.90;;
76136;SDS011;65394;53.172;18.164;2023-02-18T09:19:16;12.60;;;1.70;;
76136;SDS011;65394;53.172;18.164;2023-02-18T09:21:43;14.10;;;2.50;;
76136;SDS011;65394;53.172;18.164;2023-02-18T09:24:09;12.60;;;2.00;;
76136;SDS011;65394;53.172;18.164;2023-02-18T09:26:35;10.30;;;1.40;;
76136;SDS011;65394;53.172;18.164;2023-02-18T09:29:02;10.10;;;1.70;;
76136;SDS011;65394;53.172;18.164;2023-02-18T09:31:28;8.70;;;2.00;;
76136;SDS011;65394;53.172;18.164;2023-02-18T09:34:01;14.90;;;2.70;;
76136;SDS011;65394;53.172;18.164;2023-02-18T09:36:27;14.50;;;3.00;;
76136;SDS011;65394;53.172;18.164;2023-02-18T09:38:54;15.60;;;2.80;;
76136;SDS011;65394;53.172;18.164;2023-02-18T09:41:26;12.10;;;1.80;;
76136;SDS011;65394;53.172;18.164;2023-02-18T09:44:12;12.80;;;2.80;;
76136;SDS011;65394;53.172;18.164;2023-02-18T09:47:17;12.20;;;2.60;;
76136;SDS011;65394;53.172;18.164;2023-02-18T09:49:39;18.20;;;3.40;;
76136;SDS011;65394;53.172;18.164;2023-02-18T09:52:10;14.70;;;2.40;;
76136;SDS011;65394;53.172;18.164;2023-02-18T09:54:49;9.90;;;1.80;;
76136;SDS011;65394;53.172;18.164;2023-02-18T09:57:38;12.80;;;2.30;;
76136;SDS011;65394;53.172;18.164;2023-02-18T10:00:15;12.50;;;1.40;;
76136;SDS011;65394;53.172;18.164;2023-02-18T10:02:49;12.20;;;1.70;;
76136;SDS011;65394;53.172;18.164;2023-02-18T10:05:20;12.30;;;2.40;;
76136;SDS011;65394;53.172;18.164;2023-02-18T10:07:48;10.00;;;2.10;;
76136;SDS011;65394;53.172;18.164;2023-02-18T10:12:53;12.00;;;1.40;;
76136;SDS011;65394;53.172;18.164;2023-02-18T10:15:21;11.70;;;2.10;;
76136;SDS011;65394;53.172;18.164;2023-02-18T10:17:51;12.60;;;2.40;;
76136;SDS011;65394;53.172;18.164;2023-02-18T10:20:19;14.70;;;3.70;;
76136;SDS011;65394;53.172;18.164;2023-02-18T10:22:48;12.10;;;2.70;;
76136;SDS011;65394;53.172;18.164;2023-02-18T10:25:19;13.30;;;2.00;;
76136;SDS011;65394;53.172;18.164;2023-02-18T10:27:47;12.90;;;2.40;;
76136;SDS011;65394;53.172;18.164;2023-02-18T10:32:54;19.80;;;4.70;;
76136;SDS011;65394;53.172;18.164;2023-02-18T10:41:22;8.70;;;2.10;;
76136;SDS011;65394;53.172;18.164;2023-02-18T10:52:04;13.70;;;2.00;;
76136;SDS011;65394;53.172;18.164;2023-02-18T10:57:24;9.10;;;1.80;;
76136;SDS011;65394;53.172;18.164;2023-02-18T11:02:41;11.20;;;1.80;;
76136;SDS011;65394;53.172;18.164;2023-02-18T11:05:24;11.20;;;1.80;;
76136;SDS011;65394;53.172;18.164;2023-02-18T11:07:53;10.20;;;1.20;;
76136;SDS011;65394;53.172;18.164;2023-02-18T11:10:28;7.10;;;1.40;;
76136;SDS011;65394;53.172;18.164;2023-02-18T11:13:01;12.70;;;1.70;;
76136;SDS011;65394;53.172;18.164;2023-02-18T11:15:30;11.20;;;2.30;;
76136;SDS011;65394;53.172;18.164;2023-02-18T11:17:57;7.50;;;1.70;;
76136;SDS011;65394;53.172;18.164;2023-02-18T11:20:36;7.90;;;1.50;;
76136;SDS011;65394;53.172;18.164;2023-02-18T11:25:33;10.10;;;2.20;;
76136;SDS011;65394;53.172;18.164;2023-02-18T11:30:42;10.50;;;1.40;;
76136;SDS011;65394;53.172;18.164;2023-02-18T11:33:18;10.60;;;2.10;;
76136;SDS011;65394;53.172;18.164;2023-02-18T11:36:18;9.40;;;1.40;;
76136;SDS011;65394;53.172;18.164;2023-02-18T11:39:19;10.70;;;1.40;;
76136;SDS011;65394;53.172;18.164;2023-02-18T11:41:57;13.40;;;1.90;;
76136;SDS011;65394;53.172;18.164;2023-02-18T11:44:31;9.90;;;1.60;;
76136;SDS011;65394;53.172;18.164;2023-02-18T11:49:34;10.80;;;1.80;;
76136;SDS011;65394;53.172;18.164;2023-02-18T11:52:19;15.80;;;3.20;;
76136;SDS011;65394;53.172;18.164;2023-02-18T11:55:07;12.40;;;2.10;;
76136;SDS011;65394;53.172;18.164;2023-02-18T11:58:13;14.00;;;2.10;;
76136;SDS011;65394;53.172;18.164;2023-02-18T12:03:23;12.30;;;2.20;;
76136;SDS011;65394;53.172;18.164;2023-02-18T12:05:57;12.80;;;3.20;;
76136;SDS011;65394;53.172;18.164;2023-02-18T12:08:27;13.80;;;2.60;;
76136;SDS011;65394;53.172;18.164;2023-02-18T12:11:00;12.20;;;2.80;;
76136;SDS011;65394;53.172;18.164;2023-02-18T12:13:36;10.80;;;1.80;;
76136;SDS011;65394;53.172;18.164;2023-02-18T12:18:53;10.70;;;1.90;;
76136;SDS011;65394;53.172;18.164;2023-02-18T12:24:44;10.40;;;2.00;;
76136;SDS011;65394;53.172;18.164;2023-02-18T12:27:33;13.40;;;2.50;;
76136;SDS011;65394;53.172;18.164;2023-02-18T12:41:52;14.30;;;2.10;;
76136;SDS011;65394;53.172;18.164;2023-02-18T12:47:22;12.00;;;2.10;;
76136;SDS011;65394;53.172;18.164;2023-02-18T13:00:48;12.50;;;2.40;;
76136;SDS011;65394;53.172;18.164;2023-02-18T13:08:53;10.40;;;2.20;;
76136;SDS011;65394;53.172;18.164;2023-02-18T13:11:57;11.00;;;1.50;;
76136;SDS011;65394;53.172;18.164;2023-02-18T13:14:27;9.60;;;1.80;;
76136;SDS011;65394;53.172;18.164;2023-02-18T13:16:57;10.50;;;1.60;;
76136;SDS011;65394;53.172;18.164;2023-02-18T13:22:03;15.50;;;2.80;;
76136;SDS011;65394;53.172;18.164;2023-02-18T13:27:04;15.60;;;3.00;;
76136;SDS011;65394;53.172;18.164;2023-02-18T13:29:44;12.10;;;2.30;;
76136;SDS011;65394;53.172;18.164;2023-02-18T13:32:50;13.10;;;2.50;;
76136;SDS011;65394;53.172;18.164;2023-02-18T13:41:01;6.90;;;1.10;;
76136;SDS011;65394;53.172;18.164;2023-02-18T13:43:32;8.90;;;2.00;;
76136;SDS011;65394;53.172;18.164;2023-02-18T13:48:41;9.60;;;1.70;;
76136;SDS011;65394;53.172;18.164;2023-02-18T13:51:10;8.00;;;1.30;;
76136;SDS011;65394;53.172;18.164;2023-02-18T13:53:39;7.90;;;1.70;;
76136;SDS011;65394;53.172;18.164;2023-02-18T13:56:22;10.40;;;1.90;;
76136;SDS011;65394;53.172;18.164;2023-02-18T13:59:40;9.80;;;1.40;;
76136;SDS011;65394;53.172;18.164;2023-02-18T14:01:45;7.80;;;1.60;;
76136;SDS011;65394;53.172;18.164;2023-02-18T14:09:53;7.30;;;1.70;;
76136;SDS011;65394;53.172;18.164;2023-02-18T14:33:38;5.30;;;0.90;;
76136;SDS011;65394;53.172;18.164;2023-02-18T14:41:51;7.60;;;2.20;;
76136;SDS011;65394;53.172;18.164;2023-02-18T14:47:38;8.00;;;1.70;;
76136;SDS011;65394;53.172;18.164;2023-02-18T14:50:12;6.50;;;1.20;;
76136;SDS011;65394;53.172;18.164;2023-02-18T14:52:46;7.50;;;1.60;;
76136;SDS011;65394;53.172;18.164;2023-02-18T14:55:19;6.30;;;1.10;;
76136;SDS011;65394;53.172;18.164;2023-02-18T14:57:50;6.60;;;1.10;;
76136;SDS011;65394;53.172;18.164;2023-02-18T15:00:25;10.00;;;2.20;;
76136;SDS011;65394;53.172;18.164;2023-02-18T15:02:57;12.30;;;3.70;;
76136;SDS011;65394;53.172;18.164;2023-02-18T15:05:26;10.70;;;3.80;;
76136;SDS011;65394;53.172;18.164;2023-02-18T15:07:55;11.70;;;3.20;;
76136;SDS011;65394;53.172;18.164;2023-02-18T15:10:21;7.50;;;1.90;;
76136;SDS011;65394;53.172;18.164;2023-02-18T15:12:47;8.30;;;1.60;;
76136;SDS011;65394;53.172;18.164;2023-02-18T15:15:13;6.60;;;1.80;;
76136;SDS011;65394;53.172;18.164;2023-02-18T15:17:45;8.80;;;2.30;;
76136;SDS011;65394;53.172;18.164;2023-02-18T15:20:13;8.90;;;2.70;;
76136;SDS011;65394;53.172;18.164;2023-02-18T15:22:39;7.90;;;2.20;;
76136;SDS011;65394;53.172;18.164;2023-02-18T15:25:08;6.90;;;1.50;;
76136;SDS011;65394;53.172;18.164;2023-02-18T15:27:41;7.10;;;1.70;;
76136;SDS011;65394;53.172;18.164;2023-02-18T15:32:54;7.30;;;1.20;;
76136;SDS011;65394;53.172;18.164;2023-02-18T15:35:26;7.80;;;1.70;;
76136;SDS011;65394;53.172;18.164;2023-02-18T15:37:58;5.80;;;1.10;;
76136;SDS011;65394;53.172;18.164;2023-02-18T15:40:29;4.80;;;0.70;;
76136;SDS011;65394;53.172;18.164;2023-02-18T15:42:58;7.50;;;1.20;;
76136;SDS011;65394;53.172;18.164;2023-02-18T15:45:33;7.00;;;1.40;;
76136;SDS011;65394;53.172;18.164;2023-02-18T15:48:02;7.80;;;2.10;;
76136;SDS011;65394;53.172;18.164;2023-02-18T15:50:44;10.80;;;3.80;;
76136;SDS011;65394;53.172;18.164;2023-02-18T15:53:22;32.40;;;12.90;;
76136;SDS011;65394;53.172;18.164;2023-02-18T15:55:51;14.00;;;4.60;;
76136;SDS011;65394;53.172;18.164;2023-02-18T15:58:26;22.70;;;9.80;;
76136;SDS011;65394;53.172;18.164;2023-02-18T16:00:56;15.60;;;6.20;;
76136;SDS011;65394;53.172;18.164;2023-02-18T16:03:28;8.50;;;3.00;;
76136;SDS011;65394;53.172;18.164;2023-02-18T16:06:18;11.90;;;4.30;;
76136;SDS011;65394;53.172;18.164;2023-02-18T16:08:54;11.30;;;4.10;;
76136;SDS011;65394;53.172;18.164;2023-02-18T16:11:23;6.10;;;2.00;;
76136;SDS011;65394;53.172;18.164;2023-02-18T16:13:52;7.80;;;2.20;;
76136;SDS011;65394;53.172;18.164;2023-02-18T16:16:36;9.90;;;2.30;;
76136;SDS011;65394;53.172;18.164;2023-02-18T16:19:04;8.80;;;2.40;;
76136;SDS011;65394;53.172;18.164;2023-02-18T16:21:31;7.20;;;2.10;;
76136;SDS011;65394;53.172;18.164;2023-02-18T16:24:03;9.90;;;2.80;;
76136;SDS011;65394;53.172;18.164;2023-02-18T16:26:52;6.00;;;2.10;;
76136;SDS011;65394;53.172;18.164;2023-02-18T16:32:05;8.50;;;2.40;;
76136;SDS011;65394;53.172;18.164;2023-02-18T16:34:31;7.00;;;1.90;;
76136;SDS011;65394;53.172;18.164;2023-02-18T16:36:57;8.80;;;2.70;;
76136;SDS011;65394;53.172;18.164;2023-02-18T16:39:42;11.20;;;3.20;;
76136;SDS011;65394;53.172;18.164;2023-02-18T16:42:09;9.80;;;3.10;;
76136;SDS011;65394;53.172;18.164;2023-02-18T16:44:35;8.80;;;3.40;;
76136;SDS011;65394;53.172;18.164;2023-02-18T16:47:02;21.40;;;6.50;;
76136;SDS011;65394;53.172;18.164;2023-02-18T16:49:28;11.50;;;3.50;;
76136;SDS011;65394;53.172;18.164;2023-02-18T16:51:55;26.80;;;8.70;;
76136;SDS011;65394;53.172;18.164;2023-02-18T16:54:21;15.20;;;5.70;;
76136;SDS011;65394;53.172;18.164;2023-02-18T16:56:47;19.40;;;8.50;;
76136;SDS011;65394;53.172;18.164;2023-02-18T16:59:13;21.00;;;9.40;;
76136;SDS011;65394;53.172;18.164;2023-02-18T17:01:40;16.70;;;8.20;;
76136;SDS011;65394;53.172;18.164;2023-02-18T17:04:09;15.20;;;6.70;;
76136;SDS011;65394;53.172;18.164;2023-02-18T17:06:38;18.90;;;6.50;;
76136;SDS011;65394;53.172;18.164;2023-02-18T17:09:09;29.80;;;10.50;;
76136;SDS011;65394;53.172;18.164;2023-02-18T17:11:41;18.00;;;7.10;;
76136;SDS011;65394;53.172;18.164;2023-02-18T17:14:12;21.10;;;7.70;;
76136;SDS011;65394;53.172;18.164;2023-02-18T17:16:39;17.00;;;5.60;;
76136;SDS011;65394;53.172;18.164;2023-02-18T17:19:05;12.50;;;4.70;;
76136;SDS011;65394;53.172;18.164;2023-02-18T17:21:31;16.80;;;6.10;;
76136;SDS011;65394;53.172;18.164;2023-02-18T17:23:56;17.70;;;6.70;;
76136;SDS011;65394;53.172;18.164;2023-02-18T17:26:24;12.30;;;4.60;;
76136;SDS011;65394;53.172;18.164;2023-02-18T17:28:52;10.40;;;3.40;;
76136;SDS011;65394;53.172;18.164;2023-02-18T17:31:20;15.00;;;5.80;;
76136;SDS011;65394;53.172;18.164;2023-02-18T17:33:52;11.30;;;3.30;;
76136;SDS011;65394;53.172;18.164;2023-02-18T17:36:20;12.90;;;5.10;;